createdAt,value
2023-12-09T00:00:13.814Z,6.47
2023-12-09T00:02:19.377Z,6.49
2023-12-09T00:04:24.566Z,6.47
2023-12-09T00:06:29.435Z,6.49
2023-12-09T00:08:34.568Z,6.50
2023-12-09T00:10:39.431Z,6.45
2023-12-09T00:12:45.290Z,6.47
2023-12-09T00:14:47.513Z,6.44
2023-12-09T00:16:52.413Z,6.47
2023-12-09T00:18:57.792Z,6.42
2023-12-09T00:21:05.214Z,6.39
2023-12-09T00:23:10.197Z,6.33
2023-12-09T00:25:15.395Z,6.33
2023-12-09T00:27:20.318Z,6.40
2023-12-09T00:29:25.069Z,6.39
2023-12-09T00:31:29.879Z,6.38
2023-12-09T00:33:34.931Z,6.41
2023-12-09T00:35:39.744Z,6.39
2023-12-09T00:37:47.212Z,6.35
2023-12-09T00:39:51.964Z,6.37
2023-12-09T00:41:56.854Z,6.32
2023-12-09T00:44:01.760Z,6.29
2023-12-09T00:46:06.068Z,6.33
2023-12-09T00:48:11.536Z,6.26
2023-12-09T00:50:16.615Z,6.25
2023-12-09T00:52:21.415Z,6.26
2023-12-09T00:54:30.911Z,6.29
2023-12-09T00:56:35.881Z,6.25
2023-12-09T00:58:40.783Z,6.28
2023-12-09T01:00:45.896Z,6.27
2023-12-09T01:02:48.510Z,6.22
2023-12-09T01:04:53.419Z,6.14
2023-12-09T01:06:58.196Z,6.22
2023-12-09T01:09:03.005Z,6.22
2023-12-09T01:11:10.672Z,6.14
2023-12-09T01:13:13.270Z,6.09
2023-12-09T01:15:18.133Z,6.05
2023-12-09T01:17:22.971Z,6.08
2023-12-09T01:19:27.687Z,6.04
2023-12-09T01:21:32.557Z,6.08
2023-12-09T01:23:37.341Z,6.04
2023-12-09T01:25:42.201Z,6.04
2023-12-09T01:27:49.820Z,6.09
2023-12-09T01:29:54.550Z,6.03
2023-12-09T01:32:01.604Z,6.03
2023-12-09T01:34:06.864Z,6.00
2023-12-09T01:36:12.621Z,5.99
2023-12-09T01:38:17.551Z,6.01
2023-12-09T01:40:22.771Z,5.91
2023-12-09T01:42:25.324Z,5.90
2023-12-09T01:44:32.942Z,5.95
2023-12-09T01:46:38.183Z,5.92
2023-12-09T01:48:43.360Z,5.86
2023-12-09T01:50:46.148Z,5.80
2023-12-09T01:52:50.954Z,5.91
2023-12-09T01:54:53.186Z,5.84
2023-12-09T01:56:58.765Z,5.79
2023-12-09T01:59:03.540Z,5.82
2023-12-09T02:01:11.217Z,5.83
2023-12-09T02:03:18.902Z,5.88
2023-12-09T02:05:27.392Z,5.85
2023-12-09T02:07:32.503Z,5.80
2023-12-09T02:09:41.299Z,5.84
2023-12-09T02:11:53.588Z,5.80
2023-12-09T02:14:08.887Z,5.81
2023-12-09T02:16:21.293Z,5.92
2023-12-09T02:18:28.483Z,5.89
2023-12-09T02:20:33.734Z,5.84
2023-12-09T02:22:35.902Z,5.91
2023-12-09T02:24:43.251Z,5.87
2023-12-09T02:26:45.636Z,5.75
2023-12-09T02:28:58.927Z,5.70
2023-12-09T02:31:11.083Z,5.76
2023-12-09T02:33:19.032Z,5.68
2023-12-09T02:35:26.905Z,5.67
2023-12-09T02:37:34.143Z,5.71
2023-12-09T02:39:39.931Z,5.71
2023-12-09T02:41:50.132Z,5.70
2023-12-09T02:43:54.994Z,5.64
2023-12-09T02:45:59.984Z,5.70
2023-12-09T02:48:05.136Z,5.77
2023-12-09T02:50:13.119Z,5.84
2023-12-09T02:52:15.522Z,5.84
2023-12-09T02:54:22.246Z,5.82
2023-12-09T02:56:27.144Z,5.83
2023-12-09T02:58:34.427Z,5.78
2023-12-09T03:00:39.184Z,5.75
2023-12-09T03:02:44.074Z,5.78
2023-12-09T03:04:48.857Z,5.80
2023-12-09T03:06:53.674Z,5.77
2023-12-09T03:08:58.454Z,5.80
2023-12-09T03:11:03.192Z,5.77
2023-12-09T03:13:05.372Z,5.80
2023-12-09T03:15:13.997Z,5.77
2023-12-09T03:17:16.214Z,5.77
2023-12-09T03:19:21.442Z,5.84
2023-12-09T03:21:26.410Z,5.73
2023-12-09T03:23:31.209Z,5.76
2023-12-09T03:25:36.333Z,5.77
2023-12-09T03:27:38.681Z,5.83
2023-12-09T03:29:43.534Z,5.85
2023-12-09T03:31:51.609Z,5.78
2023-12-09T03:33:59.466Z,5.79
2023-12-09T03:36:04.348Z,5.83
2023-12-09T03:38:09.029Z,5.86
2023-12-09T03:40:15.424Z,5.85
2023-12-09T03:42:20.311Z,5.85
2023-12-09T03:44:22.809Z,5.72
2023-12-09T03:46:27.599Z,5.67
2023-12-09T03:48:35.178Z,5.59
2023-12-09T03:50:40.329Z,5.53
2023-12-09T03:52:45.474Z,5.57
2023-12-09T03:54:50.259Z,5.50
2023-12-09T03:56:55.234Z,5.43
2023-12-09T03:59:01.619Z,5.47
2023-12-09T04:01:06.976Z,5.47
2023-12-09T04:03:12.569Z,5.48
2023-12-09T04:05:20.055Z,5.46
2023-12-09T04:07:24.868Z,5.50
2023-12-09T04:09:29.610Z,5.45
2023-12-09T04:11:34.378Z,5.45
2023-12-09T04:13:39.233Z,5.49
2023-12-09T04:15:41.438Z,5.45
2023-12-09T04:17:46.409Z,5.38
2023-12-09T04:19:53.194Z,5.46
2023-12-09T04:22:00.755Z,5.46
2023-12-09T04:24:08.289Z,5.43
2023-12-09T04:26:13.276Z,5.52
2023-12-09T04:28:18.146Z,5.47
2023-12-09T04:30:23.372Z,5.46
2023-12-09T04:32:28.550Z,5.41
2023-12-09T04:34:33.674Z,5.46
2023-12-09T04:36:38.786Z,5.40
2023-12-09T04:38:46.475Z,5.41
2023-12-09T04:40:51.233Z,5.41
2023-12-09T04:42:56.315Z,5.40
2023-12-09T04:45:01.145Z,5.42
2023-12-09T04:47:08.160Z,5.39
2023-12-09T04:49:10.816Z,5.42
2023-12-09T04:51:16.016Z,5.42
2023-12-09T04:53:22.032Z,5.41
2023-12-09T04:55:30.171Z,5.42
2023-12-09T04:57:35.204Z,5.41
2023-12-09T04:59:39.968Z,5.40
2023-12-09T05:01:47.180Z,5.39
2023-12-09T05:03:52.212Z,5.39
2023-12-09T05:05:58.366Z,5.40
2023-12-09T05:08:04.637Z,5.43
2023-12-09T05:10:07.804Z,5.43
2023-12-09T05:12:18.097Z,5.43
2023-12-09T05:14:20.316Z,5.47
2023-12-09T05:16:25.054Z,5.53
2023-12-09T05:18:30.249Z,5.52
2023-12-09T05:20:32.545Z,5.50
2023-12-09T05:22:38.513Z,5.50
2023-12-09T05:24:44.017Z,5.48
2023-12-09T05:26:46.371Z,5.48
2023-12-09T05:28:53.963Z,5.48
2023-12-09T05:30:58.789Z,5.50
2023-12-09T05:33:05.029Z,5.52
2023-12-09T05:35:14.146Z,5.54
2023-12-09T05:37:18.810Z,5.53
2023-12-09T05:39:23.520Z,5.55
2023-12-09T05:41:28.551Z,5.54
2023-12-09T05:43:34.998Z,5.52
2023-12-09T05:45:44.332Z,5.52
2023-12-09T05:47:49.337Z,5.56
2023-12-09T05:49:54.208Z,5.57
2023-12-09T05:51:58.980Z,5.63
2023-12-09T05:54:03.757Z,5.64
2023-12-09T05:56:13.225Z,5.62
2023-12-09T05:58:18.198Z,5.65
2023-12-09T06:00:20.725Z,5.68
2023-12-09T06:02:28.612Z,5.71
2023-12-09T06:04:31.027Z,5.73
2023-12-09T06:06:35.927Z,5.69
2023-12-09T06:08:41.023Z,5.69
2023-12-09T06:10:49.097Z,5.71
2023-12-09T06:12:53.957Z,5.75
2023-12-09T06:14:58.730Z,5.79
2023-12-09T06:17:03.650Z,5.78
2023-12-09T06:19:12.325Z,5.78
2023-12-09T06:21:23.217Z,5.74
2023-12-09T06:23:28.013Z,5.75
2023-12-09T06:25:32.891Z,5.75
2023-12-09T06:27:39.348Z,5.78
2023-12-09T06:29:41.573Z,5.77
2023-12-09T06:31:46.480Z,5.80
2023-12-09T06:33:51.423Z,5.78
2023-12-09T06:35:59.092Z,5.77
2023-12-09T06:38:04.025Z,5.76
2023-12-09T06:40:10.522Z,5.80
2023-12-09T06:42:15.146Z,5.77
2023-12-09T06:44:19.916Z,5.77
2023-12-09T06:46:24.707Z,5.78
2023-12-09T06:48:29.808Z,5.78
2023-12-09T06:50:34.759Z,5.76
2023-12-09T06:52:42.572Z,5.77
2023-12-09T06:54:47.460Z,5.75
2023-12-09T06:56:52.308Z,5.78
2023-12-09T06:58:57.189Z,5.80
2023-12-09T07:01:03.073Z,5.81
2023-12-09T07:03:08.846Z,5.85
2023-12-09T07:05:18.497Z,5.86
2023-12-09T07:07:23.501Z,5.88
2023-12-09T07:09:31.609Z,5.88
2023-12-09T07:11:36.881Z,5.93
2023-12-09T07:13:42.430Z,5.89
2023-12-09T07:15:47.284Z,5.90
2023-12-09T07:17:52.303Z,5.97
2023-12-09T07:19:57.985Z,5.98
2023-12-09T07:22:04.908Z,6.00
2023-12-09T07:24:10.059Z,6.00
2023-12-09T07:26:17.709Z,6.03
2023-12-09T07:28:23.489Z,6.00
2023-12-09T07:30:28.762Z,6.04
2023-12-09T07:32:34.057Z,6.01
2023-12-09T07:34:37.455Z,5.97
2023-12-09T07:36:43.084Z,6.03
2023-12-09T07:38:48.262Z,6.07
2023-12-09T07:40:53.088Z,6.07
2023-12-09T07:43:00.358Z,6.11
2023-12-09T07:45:05.151Z,6.09
2023-12-09T07:47:10.326Z,6.18
2023-12-09T07:49:18.466Z,6.15
2023-12-09T07:51:23.460Z,6.16
2023-12-09T07:53:29.095Z,6.18
2023-12-09T07:55:34.284Z,6.24
2023-12-09T07:57:36.949Z,6.29
2023-12-09T07:59:45.025Z,6.26
2023-12-09T08:01:50.115Z,6.26
2023-12-09T08:03:55.060Z,6.30
2023-12-09T08:06:00.469Z,6.32
2023-12-09T08:08:05.611Z,6.32
2023-12-09T08:10:11.631Z,6.30
2023-12-09T08:12:14.296Z,6.31
2023-12-09T08:14:19.069Z,6.33
2023-12-09T08:16:26.384Z,6.37
2023-12-09T08:18:31.540Z,6.40
2023-12-09T08:20:36.503Z,6.39
2023-12-09T08:22:43.123Z,6.43
2023-12-09T08:24:47.844Z,6.44
2023-12-09T08:26:52.723Z,6.48
2023-12-09T08:28:58.768Z,6.46
2023-12-09T08:31:05.756Z,6.44
2023-12-09T08:33:13.537Z,6.46
2023-12-09T08:35:16.002Z,6.48
2023-12-09T08:37:26.738Z,6.54
2023-12-09T08:39:32.045Z,6.58
2023-12-09T08:41:37.335Z,6.57
2023-12-09T08:43:44.735Z,6.55
2023-12-09T08:45:49.621Z,6.56
2023-12-09T08:47:59.193Z,6.57
2023-12-09T08:50:21.315Z,6.62
2023-12-09T08:52:29.020Z,6.57
2023-12-09T08:54:34.427Z,6.56
2023-12-09T08:56:39.206Z,6.54
2023-12-09T08:58:48.227Z,6.58
2023-12-09T09:00:53.692Z,6.60
2023-12-09T09:02:58.841Z,6.61
2023-12-09T09:05:06.586Z,6.64
2023-12-09T09:07:08.917Z,6.65
2023-12-09T09:09:13.921Z,6.67
2023-12-09T09:11:18.844Z,6.70
2023-12-09T09:13:23.676Z,6.71
2023-12-09T09:15:28.843Z,6.73
2023-12-09T09:17:33.871Z,6.73
2023-12-09T09:19:38.994Z,6.75
2023-12-09T09:21:46.593Z,6.77
2023-12-09T09:23:51.290Z,6.81
2023-12-09T09:26:03.302Z,6.86
2023-12-09T09:28:09.826Z,6.86
2023-12-09T09:30:16.064Z,6.88
2023-12-09T09:32:18.847Z,6.90
2023-12-09T09:34:23.853Z,6.93
2023-12-09T09:36:29.015Z,6.96
2023-12-09T09:38:46.930Z,7.01
2023-12-09T09:40:51.880Z,7.02
2023-12-09T09:43:00.503Z,7.08
2023-12-09T09:45:16.727Z,7.11
2023-12-09T09:47:20.446Z,7.13
2023-12-09T09:49:28.217Z,7.17
2023-12-09T09:51:34.802Z,7.23
2023-12-09T09:53:59.520Z,7.23
2023-12-09T09:56:05.216Z,7.23
2023-12-09T09:58:14.501Z,7.22
2023-12-09T10:00:21.150Z,7.26
2023-12-09T10:02:27.283Z,7.33
2023-12-09T10:04:32.351Z,7.34
2023-12-09T10:06:38.838Z,7.34
2023-12-09T10:08:47.919Z,7.41
2023-12-09T10:10:56.270Z,7.41
2023-12-09T10:13:01.459Z,7.39
2023-12-09T10:15:09.260Z,7.38
2023-12-09T10:17:14.403Z,7.41
2023-12-09T10:19:22.100Z,7.36
2023-12-09T10:21:29.663Z,7.36
2023-12-09T10:23:34.623Z,7.39
2023-12-09T10:25:44.066Z,7.42
2023-12-09T10:27:52.768Z,7.40
2023-12-09T10:30:00.180Z,7.39
2023-12-09T10:32:05.417Z,7.38
2023-12-09T10:34:17.692Z,7.39
2023-12-09T10:36:23.600Z,7.45
2023-12-09T10:38:32.186Z,7.40
2023-12-09T10:40:37.581Z,7.40
2023-12-09T10:42:49.026Z,7.42
2023-12-09T10:44:53.813Z,7.41
2023-12-09T10:46:58.584Z,7.43
2023-12-09T10:49:03.772Z,7.41
2023-12-09T10:51:09.212Z,7.41
2023-12-09T10:53:14.162Z,7.34
2023-12-09T10:55:20.720Z,7.35
2023-12-09T10:57:27.293Z,7.34
2023-12-09T10:59:36.729Z,7.33
2023-12-09T11:01:43.959Z,7.38
2023-12-09T11:03:49.832Z,7.34
2023-12-09T11:06:01.760Z,7.35
2023-12-09T11:08:07.662Z,7.33
2023-12-09T11:10:14.671Z,7.32
2023-12-09T11:12:30.315Z,7.31
2023-12-09T11:14:38.315Z,7.31
2023-12-09T11:16:47.634Z,7.29
2023-12-09T11:18:51.330Z,7.33
2023-12-09T11:20:58.975Z,7.31
2023-12-09T11:23:05.534Z,7.34
2023-12-09T11:25:13.586Z,7.37
2023-12-09T11:27:22.042Z,7.36
2023-12-09T11:29:28.561Z,7.37
2023-12-09T11:31:38.823Z,7.40
2023-12-09T11:33:43.860Z,7.44
2023-12-09T11:35:51.529Z,7.42
2023-12-09T11:37:57.795Z,7.44
2023-12-09T11:40:07.187Z,7.49
2023-12-09T11:42:14.326Z,7.41
2023-12-09T11:44:19.294Z,7.49
2023-12-09T11:46:21.981Z,7.51
2023-12-09T11:48:30.947Z,7.51
2023-12-09T11:50:35.828Z,7.40
2023-12-09T11:52:40.678Z,7.45
2023-12-09T11:54:46.090Z,7.49
2023-12-09T11:56:50.814Z,7.48
2023-12-09T11:58:53.515Z,7.46
2023-12-09T12:01:00.970Z,7.48
2023-12-09T12:03:06.578Z,7.45
2023-12-09T12:05:15.376Z,7.45
2023-12-09T12:07:20.318Z,7.44
2023-12-09T12:09:25.155Z,7.46
2023-12-09T12:11:29.866Z,7.47
2023-12-09T12:13:32.207Z,7.41
2023-12-09T12:15:37.159Z,7.47
2023-12-09T12:17:46.234Z,7.39
2023-12-09T12:19:51.715Z,7.35
2023-12-09T12:21:59.796Z,7.38
2023-12-09T12:24:07.036Z,7.38
2023-12-09T12:26:10.888Z,7.31
2023-12-09T12:28:18.906Z,7.30
2023-12-09T12:30:24.371Z,7.30
2023-12-09T12:32:29.770Z,7.29
2023-12-09T12:34:34.872Z,7.31
2023-12-09T12:36:39.909Z,7.26
2023-12-09T12:38:48.331Z,7.31
2023-12-09T12:40:54.003Z,7.30
2023-12-09T12:42:58.827Z,7.28
2023-12-09T12:45:04.924Z,7.27
2023-12-09T12:47:15.214Z,7.29
2023-12-09T12:49:20.241Z,7.33
2023-12-09T12:51:26.883Z,7.30
2023-12-09T12:53:32.068Z,7.31
2023-12-09T12:55:39.534Z,7.33
2023-12-09T12:57:43.116Z,7.35
2023-12-09T12:59:48.003Z,7.30
2023-12-09T13:01:52.950Z,7.31
2023-12-09T13:03:58.164Z,7.31
2023-12-09T13:06:06.015Z,7.29
2023-12-09T13:08:08.205Z,7.31
2023-12-09T13:10:14.001Z,7.25
2023-12-09T13:12:21.602Z,7.24
2023-12-09T13:14:26.436Z,7.22
2023-12-09T13:16:28.746Z,7.26
2023-12-09T13:18:34.004Z,7.24
2023-12-09T13:20:39.237Z,7.24
2023-12-09T13:22:43.987Z,7.26
2023-12-09T13:24:49.275Z,7.22
2023-12-09T13:26:54.133Z,7.23
2023-12-09T13:29:01.638Z,7.21
2023-12-09T13:31:06.889Z,7.19
2023-12-09T13:33:12.960Z,7.17
2023-12-09T13:35:16.370Z,7.16
2023-12-09T13:37:22.238Z,7.15
2023-12-09T13:39:27.325Z,7.13
2023-12-09T13:41:32.299Z,7.14
2023-12-09T13:43:37.045Z,7.11
2023-12-09T13:45:44.601Z,7.10
2023-12-09T13:47:49.578Z,7.10
2023-12-09T13:49:54.561Z,7.11
2023-12-09T13:51:59.923Z,7.12
2023-12-09T13:54:05.110Z,7.09
2023-12-09T13:56:11.642Z,7.09
2023-12-09T13:58:16.645Z,7.09
2023-12-09T14:00:22.020Z,7.04
2023-12-09T14:02:29.827Z,7.01
2023-12-09T14:04:34.923Z,7.03
2023-12-09T14:06:41.370Z,7.03
2023-12-09T14:08:46.324Z,6.98
2023-12-09T14:10:51.337Z,6.95
2023-12-09T14:12:56.820Z,6.96
2023-12-09T14:15:01.776Z,6.97
2023-12-09T14:17:08.300Z,6.95
2023-12-09T14:19:15.828Z,6.94
2023-12-09T14:21:18.774Z,6.92
2023-12-09T14:23:24.286Z,6.94
2023-12-09T14:25:29.590Z,6.94
2023-12-09T14:27:35.531Z,6.93
2023-12-09T14:29:37.670Z,6.93
2023-12-09T14:31:42.577Z,6.90
2023-12-09T14:33:47.587Z,6.94
2023-12-09T14:35:55.385Z,6.93
2023-12-09T14:38:00.251Z,6.89
2023-12-09T14:40:06.601Z,6.88
2023-12-09T14:42:11.568Z,6.86
2023-12-09T14:44:16.461Z,6.88
2023-12-09T14:46:24.687Z,6.86
2023-12-09T14:48:32.521Z,6.85
2023-12-09T14:50:37.784Z,6.87
2023-12-09T14:52:46.436Z,6.85
2023-12-09T14:54:51.512Z,6.88
2023-12-09T14:56:56.668Z,6.86
2023-12-09T14:59:02.281Z,6.93
2023-12-09T15:01:07.899Z,6.92
2023-12-09T15:03:13.420Z,6.93
2023-12-09T15:05:18.607Z,6.95
2023-12-09T15:07:23.550Z,6.95
2023-12-09T15:09:28.432Z,6.96
2023-12-09T15:11:33.418Z,6.97
2023-12-09T15:13:38.137Z,6.99
2023-12-09T15:15:40.314Z,6.96
2023-12-09T15:17:45.343Z,7.01
2023-12-09T15:19:51.227Z,7.03
2023-12-09T15:21:56.799Z,7.06
2023-12-09T15:24:02.035Z,7.03
2023-12-09T15:26:09.865Z,7.03
2023-12-09T15:28:15.529Z,7.04
2023-12-09T15:30:20.709Z,7.07
2023-12-09T15:32:28.341Z,7.10
2023-12-09T15:34:31.993Z,7.12
2023-12-09T15:36:37.266Z,7.14
2023-12-09T15:38:42.090Z,7.20
2023-12-09T15:40:48.260Z,7.23
2023-12-09T15:42:56.001Z,7.24
2023-12-09T15:45:01.613Z,7.31
2023-12-09T15:47:10.548Z,7.37
2023-12-09T15:49:15.812Z,7.41
2023-12-09T15:51:20.760Z,7.50
2023-12-09T15:53:27.057Z,7.55
2023-12-09T15:55:34.178Z,7.55
2023-12-09T15:57:39.075Z,7.61
2023-12-09T15:59:47.845Z,7.71
2023-12-09T16:01:55.255Z,7.72
2023-12-09T16:04:00.660Z,7.72
2023-12-09T16:06:05.551Z,7.70
2023-12-09T16:08:10.641Z,7.78
2023-12-09T16:10:16.234Z,7.81
2023-12-09T16:12:21.733Z,7.90
2023-12-09T16:14:26.792Z,7.93
2023-12-09T16:16:34.381Z,7.96
2023-12-09T16:18:40.406Z,7.98
2023-12-09T16:20:45.423Z,7.99
2023-12-09T16:22:50.301Z,8.05
2023-12-09T16:24:57.500Z,8.06
2023-12-09T16:27:02.360Z,8.08
2023-12-09T16:29:07.141Z,8.17
2023-12-09T16:31:17.329Z,8.25
2023-12-09T16:33:24.931Z,8.22
2023-12-09T16:35:29.753Z,8.23
2023-12-09T16:37:31.976Z,8.32
2023-12-09T16:39:37.033Z,8.35
2023-12-09T16:41:42.005Z,8.39
2023-12-09T16:43:46.847Z,8.37
2023-12-09T16:45:51.818Z,8.47
2023-12-09T16:47:57.426Z,8.56
2023-12-09T16:50:06.601Z,8.57
2023-12-09T16:52:13.435Z,8.59
2023-12-09T16:54:15.707Z,8.67
2023-12-09T16:56:20.700Z,8.66
2023-12-09T16:58:25.556Z,8.66
2023-12-09T17:00:27.814Z,8.75
2023-12-09T17:02:32.915Z,8.89
2023-12-09T17:04:37.910Z,9.00
2023-12-09T17:06:45.881Z,9.11
2023-12-09T17:08:50.941Z,9.15
2023-12-09T17:10:58.633Z,9.21
2023-12-09T17:13:03.439Z,9.36
2023-12-09T17:15:09.101Z,9.45
2023-12-09T17:17:14.373Z,9.48
2023-12-09T17:19:19.383Z,9.51
2023-12-09T17:21:21.695Z,9.49
2023-12-09T17:23:29.082Z,9.53
2023-12-09T17:25:33.985Z,9.61
2023-12-09T17:27:38.882Z,9.68
2023-12-09T17:29:41.367Z,9.76
2023-12-09T17:31:48.219Z,9.83
2023-12-09T17:33:53.599Z,9.84
2023-12-09T17:35:59.146Z,9.91
2023-12-09T17:38:03.979Z,9.91
2023-12-09T17:40:12.783Z,9.96
2023-12-09T17:42:17.588Z,9.92
2023-12-09T17:44:22.421Z,9.94
2023-12-09T17:46:27.434Z,9.92
2023-12-09T17:48:32.602Z,9.95
2023-12-09T17:50:37.555Z,9.95
2023-12-09T17:52:42.579Z,10.01
2023-12-09T17:54:47.474Z,9.98
2023-12-09T17:56:54.994Z,10.03
2023-12-09T17:58:57.585Z,9.99
2023-12-09T18:01:03.307Z,9.98
2023-12-09T18:03:08.410Z,9.91
2023-12-09T18:05:13.449Z,9.87
2023-12-09T18:07:15.799Z,9.76
2023-12-09T18:09:20.637Z,9.63
2023-12-09T18:11:25.950Z,9.58
2023-12-09T18:13:33.674Z,9.53
2023-12-09T18:15:38.798Z,9.49
2023-12-09T18:17:44.848Z,9.47
2023-12-09T18:19:50.088Z,9.43
2023-12-09T18:21:54.783Z,9.44
2023-12-09T18:24:01.392Z,9.26
2023-12-09T18:26:06.471Z,9.09
2023-12-09T18:28:11.433Z,9.00
2023-12-09T18:30:21.890Z,8.93
2023-12-09T18:32:27.583Z,9.00
2023-12-09T18:34:33.200Z,8.92
2023-12-09T18:36:38.145Z,8.84
2023-12-09T18:38:40.376Z,8.91
2023-12-09T18:40:45.216Z,8.76
2023-12-09T18:42:52.242Z,8.65
2023-12-09T18:44:54.734Z,8.60
2023-12-09T18:47:02.742Z,8.70
2023-12-09T18:49:09.491Z,8.63
2023-12-09T18:51:14.374Z,8.63
2023-12-09T18:53:19.269Z,8.67
2023-12-09T18:55:24.056Z,8.66
2023-12-09T18:57:29.691Z,8.75
2023-12-09T18:59:36.728Z,8.67
2023-12-09T19:01:41.532Z,8.64
2023-12-09T19:03:46.498Z,8.66
2023-12-09T19:05:51.537Z,8.72
2023-12-09T19:07:53.811Z,8.78
2023-12-09T19:09:59.227Z,8.86
2023-12-09T19:12:04.959Z,8.88
2023-12-09T19:14:09.653Z,8.90
2023-12-09T19:16:14.767Z,9.03
2023-12-09T19:18:19.645Z,9.14
2023-12-09T19:20:27.116Z,9.22
2023-12-09T19:22:32.482Z,9.15
2023-12-09T19:24:34.685Z,9.24
2023-12-09T19:26:39.653Z,9.18
2023-12-09T19:28:44.478Z,9.08
2023-12-09T19:30:49.546Z,9.10
2023-12-09T19:32:54.394Z,9.09
2023-12-09T19:34:57.093Z,9.18
2023-12-09T19:37:04.548Z,9.13
2023-12-09T19:39:09.408Z,9.15
2023-12-09T19:41:14.181Z,9.22
2023-12-09T19:43:20.468Z,9.25
2023-12-09T19:45:26.749Z,9.29
2023-12-09T19:47:28.880Z,9.27
2023-12-09T19:49:34.282Z,9.28
2023-12-09T19:51:39.188Z,9.27
2023-12-09T19:53:46.522Z,9.36
2023-12-09T19:55:52.860Z,9.35
2023-12-09T19:57:55.006Z,9.30
2023-12-09T20:00:01.990Z,9.24
2023-12-09T20:02:07.034Z,9.23
2023-12-09T20:04:15.667Z,9.22
2023-12-09T20:06:20.551Z,9.27
2023-12-09T20:08:25.560Z,9.22
2023-12-09T20:10:34.702Z,9.21
2023-12-09T20:12:39.542Z,9.14
2023-12-09T20:14:44.412Z,9.08
2023-12-09T20:16:51.714Z,8.95
2023-12-09T20:18:56.748Z,8.93
2023-12-09T20:21:02.431Z,8.92
2023-12-09T20:23:07.334Z,9.02
2023-12-09T20:25:14.104Z,8.99
2023-12-09T20:27:22.025Z,8.97
2023-12-09T20:29:26.286Z,8.98
2023-12-09T20:31:31.064Z,8.95
2023-12-09T20:33:36.504Z,8.96
2023-12-09T20:35:41.338Z,9.01
2023-12-09T20:37:46.092Z,8.94
2023-12-09T20:39:50.920Z,8.95
2023-12-09T20:41:57.642Z,8.98
2023-12-09T20:44:05.050Z,9.04
2023-12-09T20:46:10.327Z,9.06
2023-12-09T20:48:17.318Z,8.97
2023-12-09T20:50:22.219Z,8.96
2023-12-09T20:52:27.330Z,8.98
2023-12-09T20:54:32.569Z,8.95
2023-12-09T20:56:37.502Z,8.85
2023-12-09T20:58:42.341Z,8.89
2023-12-09T21:00:50.612Z,8.82
2023-12-09T21:02:55.402Z,8.87
2023-12-09T21:05:01.413Z,8.83
2023-12-09T21:07:08.400Z,8.85
2023-12-09T21:09:15.961Z,8.85
2023-12-09T21:11:22.687Z,8.82
2023-12-09T21:13:27.352Z,8.71
2023-12-09T21:15:32.321Z,8.76
2023-12-09T21:17:37.161Z,8.71
2023-12-09T21:19:42.953Z,8.73
2023-12-09T21:21:48.008Z,8.60
2023-12-09T21:23:53.109Z,8.71
2023-12-09T21:25:57.852Z,8.62
2023-12-09T21:28:04.910Z,8.61
2023-12-09T21:30:12.208Z,8.54
2023-12-09T21:32:16.966Z,8.59
2023-12-09T21:34:24.615Z,8.60
2023-12-09T21:36:30.522Z,8.64
2023-12-09T21:38:35.322Z,8.62
2023-12-09T21:40:40.361Z,8.61
2023-12-09T21:42:47.493Z,8.51
2023-12-09T21:44:54.219Z,8.48
2023-12-09T21:46:59.023Z,8.40
2023-12-09T21:49:06.159Z,8.46
2023-12-09T21:51:13.908Z,8.52
2023-12-09T21:53:18.755Z,8.42
2023-12-09T21:55:24.007Z,8.45
2023-12-09T21:57:31.915Z,8.39
2023-12-09T21:59:37.799Z,8.49
2023-12-09T22:01:44.870Z,8.51
2023-12-09T22:03:50.740Z,8.50
2023-12-09T22:05:55.796Z,8.48
2023-12-09T22:08:03.337Z,8.45
2023-12-09T22:10:10.759Z,8.46
2023-12-09T22:12:15.648Z,8.49
2023-12-09T22:14:20.818Z,8.46
2023-12-09T22:16:26.052Z,8.44
2023-12-09T22:18:32.363Z,8.47
2023-12-09T22:20:37.312Z,8.44
2023-12-09T22:22:51.622Z,8.34
2023-12-09T22:25:05.434Z,8.34
2023-12-09T22:27:10.699Z,8.39
2023-12-09T22:29:13.348Z,8.36
2023-12-09T22:31:19.249Z,8.31
2023-12-09T22:33:25.586Z,8.45
2023-12-09T22:35:33.235Z,8.52
2023-12-09T22:37:40.961Z,8.58
2023-12-09T22:39:47.246Z,8.63
2023-12-09T22:41:54.971Z,8.66
2023-12-09T22:44:07.017Z,8.73
2023-12-09T22:46:11.876Z,8.68
2023-12-09T22:48:20.957Z,8.86
2023-12-09T22:50:27.896Z,8.83
2023-12-09T22:52:34.400Z,8.84
2023-12-09T22:54:37.177Z,8.97
2023-12-09T22:56:41.865Z,8.94
2023-12-09T22:58:49.347Z,8.91
2023-12-09T23:00:57.245Z,8.90
2023-12-09T23:03:04.409Z,8.88
2023-12-09T23:05:13.102Z,8.99
2023-12-09T23:07:20.356Z,9.07
2023-12-09T23:09:25.241Z,9.02
2023-12-09T23:11:30.548Z,9.07
2023-12-09T23:13:34.020Z,9.10
2023-12-09T23:15:41.548Z,9.09
2023-12-09T23:17:46.757Z,9.09
2023-12-09T23:19:49.547Z,9.15
2023-12-09T23:21:55.574Z,9.13
2023-12-09T23:24:00.619Z,9.10
2023-12-09T23:26:05.742Z,9.11
2023-12-09T23:28:11.623Z,9.11
2023-12-09T23:30:17.160Z,9.06
2023-12-09T23:32:22.047Z,8.99
2023-12-09T23:34:26.864Z,8.92
2023-12-09T23:36:31.721Z,8.81
2023-12-09T23:38:36.796Z,8.71
2023-12-09T23:40:41.744Z,8.70
2023-12-09T23:42:47.291Z,8.60
2023-12-09T23:44:52.384Z,8.59
2023-12-09T23:46:57.176Z,8.58
2023-12-09T23:49:04.923Z,8.46
2023-12-09T23:51:11.030Z,8.46
2023-12-09T23:53:18.287Z,8.48
2023-12-09T23:55:24.975Z,8.41
2023-12-09T23:57:30.844Z,8.38
2023-12-09T23:59:36.427Z,8.35
